sensor_id;sensor_type;location;lat;lon;timestamp;P1;durP1;ratioP1;P2;durP2;ratioP2
34405;SDS011;20658;45.630;8.886;2023-02-28T00:01:26;11.95;;;5.88;;
34405;SDS011;20658;45.630;8.886;2023-02-28T00:04:00;12.38;;;6.63;;
34405;SDS011;20658;45.630;8.886;2023-02-28T00:06:34;10.73;;;6.15;;
34405;SDS011;20658;45.630;8.886;2023-02-28T00:09:07;10.40;;;5.45;;
34405;SDS011;20658;45.630;8.886;2023-02-28T00:11:42;11.77;;;5.70;;
34405;SDS011;20658;45.630;8.886;2023-02-28T00:14:15;13.70;;;7.63;;
34405;SDS011;20658;45.630;8.886;2023-02-28T00:16:48;13.18;;;6.97;;
34405;SDS011;20658;45.630;8.886;2023-02-28T00:19:22;14.98;;;7.97;;
34405;SDS011;20658;45.630;8.886;2023-02-28T00:21:55;11.10;;;6.50;;
34405;SDS011;20658;45.630;8.886;2023-02-28T00:24:28;11.15;;;6.95;;
34405;SDS011;20658;45.630;8.886;2023-02-28T00:27:03;18.17;;;8.73;;
34405;SDS011;20658;45.630;8.886;2023-02-28T00:29:36;17.80;;;8.88;;
34405;SDS011;20658;45.630;8.886;2023-02-28T00:32:10;14.60;;;7.57;;
34405;SDS011;20658;45.630;8.886;2023-02-28T00:34:43;13.05;;;7.03;;
34405;SDS011;20658;45.630;8.886;2023-02-28T00:37:17;17.17;;;10.13;;
34405;SDS011;20658;45.630;8.886;2023-02-28T00:39:50;12.38;;;6.80;;
34405;SDS011;20658;45.630;8.886;2023-02-28T00:42:25;14.93;;;7.72;;
34405;SDS011;20658;45.630;8.886;2023-02-28T00:44:58;12.80;;;6.97;;
34405;SDS011;20658;45.630;8.886;2023-02-28T00:47:32;17.58;;;9.13;;
34405;SDS011;20658;45.630;8.886;2023-02-28T00:50:06;14.00;;;7.68;;
34405;SDS011;20658;45.630;8.886;2023-02-28T00:52:41;15.55;;;7.80;;
34405;SDS011;20658;45.630;8.886;2023-02-28T00:55:15;13.57;;;6.80;;
34405;SDS011;20658;45.630;8.886;2023-02-28T00:57:51;11.43;;;6.55;;
34405;SDS011;20658;45.630;8.886;2023-02-28T01:00:24;19.58;;;9.20;;
34405;SDS011;20658;45.630;8.886;2023-02-28T01:02:53;13.18;;;7.40;;
34405;SDS011;20658;45.630;8.886;2023-02-28T01:05:26;13.70;;;7.88;;
34405;SDS011;20658;45.630;8.886;2023-02-28T01:08:00;14.95;;;8.13;;
34405;SDS011;20658;45.630;8.886;2023-02-28T01:10:33;18.58;;;10.02;;
34405;SDS011;20658;45.630;8.886;2023-02-28T01:13:09;15.98;;;8.45;;
34405;SDS011;20658;45.630;8.886;2023-02-28T01:15:45;27.27;;;11.95;;
34405;SDS011;20658;45.630;8.886;2023-02-28T01:18:23;16.80;;;9.15;;
34405;SDS011;20658;45.630;8.886;2023-02-28T01:20:56;16.88;;;8.82;;
34405;SDS011;20658;45.630;8.886;2023-02-28T01:23:30;15.55;;;8.20;;
34405;SDS011;20658;45.630;8.886;2023-02-28T01:26:04;14.48;;;7.78;;
34405;SDS011;20658;45.630;8.886;2023-02-28T01:28:40;13.93;;;7.57;;
34405;SDS011;20658;45.630;8.886;2023-02-28T01:31:09;15.20;;;8.00;;
34405;SDS011;20658;45.630;8.886;2023-02-28T01:33:43;15.82;;;8.07;;
34405;SDS011;20658;45.630;8.886;2023-02-28T01:36:13;16.52;;;9.20;;
34405;SDS011;20658;45.630;8.886;2023-02-28T01:38:49;16.85;;;8.88;;
34405;SDS011;20658;45.630;8.886;2023-02-28T01:41:24;16.15;;;8.68;;
34405;SDS011;20658;45.630;8.886;2023-02-28T01:44:03;14.98;;;8.85;;
34405;SDS011;20658;45.630;8.886;2023-02-28T01:46:39;16.13;;;9.00;;
34405;SDS011;20658;45.630;8.886;2023-02-28T01:49:14;16.77;;;9.18;;
34405;SDS011;20658;45.630;8.886;2023-02-28T01:51:53;18.83;;;10.65;;
34405;SDS011;20658;45.630;8.886;2023-02-28T01:54:29;15.82;;;9.35;;
34405;SDS011;20658;45.630;8.886;2023-02-28T01:57:07;17.65;;;9.05;;
34405;SDS011;20658;45.630;8.886;2023-02-28T01:59:49;15.90;;;8.77;;
34405;SDS011;20658;45.630;8.886;2023-02-28T02:02:21;17.23;;;10.38;;
34405;SDS011;20658;45.630;8.886;2023-02-28T02:04:53;15.82;;;9.43;;
34405;SDS011;20658;45.630;8.886;2023-02-28T02:07:33;15.07;;;9.02;;
34405;SDS011;20658;45.630;8.886;2023-02-28T02:10:11;17.63;;;9.45;;
34405;SDS011;20658;45.630;8.886;2023-02-28T02:12:51;16.95;;;9.77;;
34405;SDS011;20658;45.630;8.886;2023-02-28T02:15:43;18.40;;;9.80;;
34405;SDS011;20658;45.630;8.886;2023-02-28T02:18:30;18.70;;;10.07;;
34405;SDS011;20658;45.630;8.886;2023-02-28T02:21:15;18.83;;;10.18;;
34405;SDS011;20658;45.630;8.886;2023-02-28T02:24:36;16.73;;;10.25;;
34405;SDS011;20658;45.630;8.886;2023-02-28T02:27:57;18.33;;;11.10;;
34405;SDS011;20658;45.630;8.886;2023-02-28T02:37:28;17.48;;;10.85;;
34405;SDS011;20658;45.630;8.886;2023-02-28T02:40:09;18.55;;;11.18;;
34405;SDS011;20658;45.630;8.886;2023-02-28T02:42:49;23.60;;;11.25;;
34405;SDS011;20658;45.630;8.886;2023-02-28T02:45:29;20.80;;;12.98;;
34405;SDS011;20658;45.630;8.886;2023-02-28T02:48:08;19.85;;;12.70;;
34405;SDS011;20658;45.630;8.886;2023-02-28T02:50:51;20.47;;;12.17;;
34405;SDS011;20658;45.630;8.886;2023-02-28T02:53:35;20.58;;;12.38;;
34405;SDS011;20658;45.630;8.886;2023-02-28T02:56:09;17.73;;;11.40;;
34405;SDS011;20658;45.630;8.886;2023-02-28T02:58:44;19.42;;;11.85;;
34405;SDS011;20658;45.630;8.886;2023-02-28T03:01:22;19.75;;;12.65;;
34405;SDS011;20658;45.630;8.886;2023-02-28T03:03:55;20.10;;;12.13;;
34405;SDS011;20658;45.630;8.886;2023-02-28T03:06:34;21.58;;;12.20;;
34405;SDS011;20658;45.630;8.886;2023-02-28T03:09:08;22.20;;;14.18;;
34405;SDS011;20658;45.630;8.886;2023-02-28T03:11:41;20.45;;;12.55;;
34405;SDS011;20658;45.630;8.886;2023-02-28T03:14:25;19.55;;;12.02;;
34405;SDS011;20658;45.630;8.886;2023-02-28T03:17:21;19.83;;;12.00;;
34405;SDS011;20658;45.630;8.886;2023-02-28T03:20:11;22.38;;;12.52;;
34405;SDS011;20658;45.630;8.886;2023-02-28T03:22:56;19.65;;;12.30;;
34405;SDS011;20658;45.630;8.886;2023-02-28T03:25:46;20.48;;;13.60;;
34405;SDS011;20658;45.630;8.886;2023-02-28T03:28:31;20.52;;;13.38;;
34405;SDS011;20658;45.630;8.886;2023-02-28T03:33:50;22.60;;;13.55;;
34405;SDS011;20658;45.630;8.886;2023-02-28T03:36:28;21.50;;;13.65;;
34405;SDS011;20658;45.630;8.886;2023-02-28T03:39:09;24.48;;;14.70;;
34405;SDS011;20658;45.630;8.886;2023-02-28T03:41:49;23.40;;;13.65;;
34405;SDS011;20658;45.630;8.886;2023-02-28T03:44:28;23.08;;;14.43;;
34405;SDS011;20658;45.630;8.886;2023-02-28T03:47:08;22.83;;;14.98;;
34405;SDS011;20658;45.630;8.886;2023-02-28T03:49:46;24.60;;;15.30;;
34405;SDS011;20658;45.630;8.886;2023-02-28T03:52:27;24.95;;;13.82;;
34405;SDS011;20658;45.630;8.886;2023-02-28T03:55:08;24.77;;;14.77;;
34405;SDS011;20658;45.630;8.886;2023-02-28T03:57:47;24.88;;;14.90;;
34405;SDS011;20658;45.630;8.886;2023-02-28T04:00:31;26.13;;;15.02;;
34405;SDS011;20658;45.630;8.886;2023-02-28T04:03:09;25.48;;;15.77;;
34405;SDS011;20658;45.630;8.886;2023-02-28T04:05:47;23.35;;;14.85;;
34405;SDS011;20658;45.630;8.886;2023-02-28T04:08:24;28.17;;;15.32;;
34405;SDS011;20658;45.630;8.886;2023-02-28T04:11:00;26.42;;;13.85;;
34405;SDS011;20658;45.630;8.886;2023-02-28T04:13:32;22.98;;;15.15;;
34405;SDS011;20658;45.630;8.886;2023-02-28T04:16:00;28.58;;;14.88;;
34405;SDS011;20658;45.630;8.886;2023-02-28T04:18:43;25.00;;;15.60;;
34405;SDS011;20658;45.630;8.886;2023-02-28T04:21:16;25.52;;;15.60;;
34405;SDS011;20658;45.630;8.886;2023-02-28T04:23:47;27.48;;;14.57;;
34405;SDS011;20658;45.630;8.886;2023-02-28T04:26:22;24.60;;;13.98;;
34405;SDS011;20658;45.630;8.886;2023-02-28T04:28:55;25.00;;;13.52;;
34405;SDS011;20658;45.630;8.886;2023-02-28T04:31:28;25.30;;;13.65;;
34405;SDS011;20658;45.630;8.886;2023-02-28T04:34:02;21.08;;;11.52;;
34405;SDS011;20658;45.630;8.886;2023-02-28T04:36:36;21.25;;;12.75;;
34405;SDS011;20658;45.630;8.886;2023-02-28T04:39:09;23.50;;;12.57;;
34405;SDS011;20658;45.630;8.886;2023-02-28T04:41:44;20.95;;;10.90;;
34405;SDS011;20658;45.630;8.886;2023-02-28T04:44:17;19.98;;;11.05;;
34405;SDS011;20658;45.630;8.886;2023-02-28T04:46:47;23.25;;;12.38;;
34405;SDS011;20658;45.630;8.886;2023-02-28T04:49:21;20.63;;;11.00;;
34405;SDS011;20658;45.630;8.886;2023-02-28T04:51:55;21.63;;;10.65;;
34405;SDS011;20658;45.630;8.886;2023-02-28T04:54:28;21.65;;;11.18;;
34405;SDS011;20658;45.630;8.886;2023-02-28T04:56:58;20.55;;;11.77;;
34405;SDS011;20658;45.630;8.886;2023-02-28T04:59:33;21.58;;;11.20;;
34405;SDS011;20658;45.630;8.886;2023-02-28T05:02:07;22.98;;;12.00;;
34405;SDS011;20658;45.630;8.886;2023-02-28T05:04:40;21.80;;;10.70;;
34405;SDS011;20658;45.630;8.886;2023-02-28T05:07:13;21.00;;;11.00;;
34405;SDS011;20658;45.630;8.886;2023-02-28T05:09:46;26.33;;;12.15;;
34405;SDS011;20658;45.630;8.886;2023-02-28T05:12:21;27.25;;;11.82;;
34405;SDS011;20658;45.630;8.886;2023-02-28T05:14:54;24.38;;;11.68;;
34405;SDS011;20658;45.630;8.886;2023-02-28T05:17:28;18.80;;;9.98;;
34405;SDS011;20658;45.630;8.886;2023-02-28T05:20:01;22.67;;;11.00;;
34405;SDS011;20658;45.630;8.886;2023-02-28T05:22:36;20.48;;;10.95;;
34405;SDS011;20658;45.630;8.886;2023-02-28T05:25:10;21.27;;;10.55;;
34405;SDS011;20658;45.630;8.886;2023-02-28T05:27:50;21.23;;;10.07;;
34405;SDS011;20658;45.630;8.886;2023-02-28T05:30:23;18.13;;;10.50;;
34405;SDS011;20658;45.630;8.886;2023-02-28T05:32:56;18.60;;;9.73;;
34405;SDS011;20658;45.630;8.886;2023-02-28T05:35:30;21.60;;;11.02;;
34405;SDS011;20658;45.630;8.886;2023-02-28T05:38:04;25.50;;;11.05;;
34405;SDS011;20658;45.630;8.886;2023-02-28T05:40:38;21.23;;;11.80;;
34405;SDS011;20658;45.630;8.886;2023-02-28T05:43:13;26.95;;;11.98;;
34405;SDS011;20658;45.630;8.886;2023-02-28T05:45:46;23.00;;;10.98;;
34405;SDS011;20658;45.630;8.886;2023-02-28T05:48:19;21.85;;;11.65;;
34405;SDS011;20658;45.630;8.886;2023-02-28T05:50:52;25.63;;;11.55;;
34405;SDS011;20658;45.630;8.886;2023-02-28T05:53:26;21.88;;;11.00;;
34405;SDS011;20658;45.630;8.886;2023-02-28T05:55:59;22.65;;;11.57;;
34405;SDS011;20658;45.630;8.886;2023-02-28T05:58:34;21.08;;;11.32;;
34405;SDS011;20658;45.630;8.886;2023-02-28T06:04:05;20.60;;;10.55;;
34405;SDS011;20658;45.630;8.886;2023-02-28T06:06:40;24.20;;;12.40;;
34405;SDS011;20658;45.630;8.886;2023-02-28T06:09:14;27.48;;;12.70;;
34405;SDS011;20658;45.630;8.886;2023-02-28T06:11:47;27.35;;;12.15;;
34405;SDS011;20658;45.630;8.886;2023-02-28T06:14:22;22.85;;;11.27;;
34405;SDS011;20658;45.630;8.886;2023-02-28T06:16:55;22.33;;;12.48;;
34405;SDS011;20658;45.630;8.886;2023-02-28T06:19:29;23.52;;;11.80;;
34405;SDS011;20658;45.630;8.886;2023-02-28T06:22:02;25.60;;;12.40;;
34405;SDS011;20658;45.630;8.886;2023-02-28T06:24:35;25.13;;;12.85;;
34405;SDS011;20658;45.630;8.886;2023-02-28T06:27:09;24.25;;;14.20;;
34405;SDS011;20658;45.630;8.886;2023-02-28T06:29:44;29.58;;;13.18;;
34405;SDS011;20658;45.630;8.886;2023-02-28T06:32:17;20.30;;;11.55;;
34405;SDS011;20658;45.630;8.886;2023-02-28T06:34:51;24.23;;;12.23;;
34405;SDS011;20658;45.630;8.886;2023-02-28T06:37:25;23.55;;;11.73;;
34405;SDS011;20658;45.630;8.886;2023-02-28T06:39:58;22.45;;;11.25;;
34405;SDS011;20658;45.630;8.886;2023-02-28T06:42:32;21.40;;;12.00;;
34405;SDS011;20658;45.630;8.886;2023-02-28T06:45:07;23.58;;;11.80;;
34405;SDS011;20658;45.630;8.886;2023-02-28T06:47:41;23.67;;;10.95;;
34405;SDS011;20658;45.630;8.886;2023-02-28T06:50:15;23.25;;;11.20;;
34405;SDS011;20658;45.630;8.886;2023-02-28T06:52:50;28.17;;;14.13;;
34405;SDS011;20658;45.630;8.886;2023-02-28T06:55:25;24.00;;;13.60;;
34405;SDS011;20658;45.630;8.886;2023-02-28T06:57:58;27.20;;;13.55;;
34405;SDS011;20658;45.630;8.886;2023-02-28T07:00:33;28.15;;;14.00;;
34405;SDS011;20658;45.630;8.886;2023-02-28T07:03:06;29.13;;;14.43;;
34405;SDS011;20658;45.630;8.886;2023-02-28T07:05:39;23.10;;;14.43;;
34405;SDS011;20658;45.630;8.886;2023-02-28T07:08:13;25.40;;;14.30;;
34405;SDS011;20658;45.630;8.886;2023-02-28T07:10:47;26.88;;;13.80;;
34405;SDS011;20658;45.630;8.886;2023-02-28T07:13:20;24.98;;;13.13;;
34405;SDS011;20658;45.630;8.886;2023-02-28T07:15:58;27.33;;;15.10;;
34405;SDS011;20658;45.630;8.886;2023-02-28T07:18:33;29.65;;;14.75;;
34405;SDS011;20658;45.630;8.886;2023-02-28T07:21:07;25.75;;;13.65;;
34405;SDS011;20658;45.630;8.886;2023-02-28T07:23:42;24.90;;;13.60;;
34405;SDS011;20658;45.630;8.886;2023-02-28T07:26:16;24.95;;;13.57;;
34405;SDS011;20658;45.630;8.886;2023-02-28T07:28:51;27.30;;;13.70;;
34405;SDS011;20658;45.630;8.886;2023-02-28T07:31:26;25.45;;;14.75;;
34405;SDS011;20658;45.630;8.886;2023-02-28T07:34:00;29.73;;;14.63;;
34405;SDS011;20658;45.630;8.886;2023-02-28T07:36:33;28.80;;;15.10;;
34405;SDS011;20658;45.630;8.886;2023-02-28T07:39:06;34.25;;;16.48;;
34405;SDS011;20658;45.630;8.886;2023-02-28T07:41:41;30.63;;;15.48;;
34405;SDS011;20658;45.630;8.886;2023-02-28T07:44:10;28.05;;;14.27;;
34405;SDS011;20658;45.630;8.886;2023-02-28T07:46:46;25.98;;;15.15;;
34405;SDS011;20658;45.630;8.886;2023-02-28T07:49:19;27.67;;;15.95;;
34405;SDS011;20658;45.630;8.886;2023-02-28T07:51:52;25.75;;;14.82;;
34405;SDS011;20658;45.630;8.886;2023-02-28T07:54:26;26.00;;;14.68;;
34405;SDS011;20658;45.630;8.886;2023-02-28T07:56:59;26.40;;;13.55;;
34405;SDS011;20658;45.630;8.886;2023-02-28T07:59:32;28.98;;;15.13;;
34405;SDS011;20658;45.630;8.886;2023-02-28T08:02:08;26.67;;;14.45;;
34405;SDS011;20658;45.630;8.886;2023-02-28T08:04:45;25.30;;;13.45;;
34405;SDS011;20658;45.630;8.886;2023-02-28T08:07:19;25.42;;;13.68;;
34405;SDS011;20658;45.630;8.886;2023-02-28T08:09:52;26.33;;;15.48;;
34405;SDS011;20658;45.630;8.886;2023-02-28T08:12:25;25.63;;;14.30;;
34405;SDS011;20658;45.630;8.886;2023-02-28T08:14:59;23.63;;;13.95;;
34405;SDS011;20658;45.630;8.886;2023-02-28T08:17:33;30.25;;;15.27;;
34405;SDS011;20658;45.630;8.886;2023-02-28T08:20:07;25.40;;;15.15;;
34405;SDS011;20658;45.630;8.886;2023-02-28T08:22:42;25.45;;;15.07;;
34405;SDS011;20658;45.630;8.886;2023-02-28T08:25:16;25.65;;;15.15;;
34405;SDS011;20658;45.630;8.886;2023-02-28T08:27:51;23.83;;;14.32;;
34405;SDS011;20658;45.630;8.886;2023-02-28T08:30:24;24.88;;;14.57;;
34405;SDS011;20658;45.630;8.886;2023-02-28T08:32:59;24.05;;;15.32;;
34405;SDS011;20658;45.630;8.886;2023-02-28T08:35:35;36.67;;;15.73;;
34405;SDS011;20658;45.630;8.886;2023-02-28T08:38:27;28.85;;;15.65;;
34405;SDS011;20658;45.630;8.886;2023-02-28T08:41:00;28.38;;;16.27;;
34405;SDS011;20658;45.630;8.886;2023-02-28T08:43:37;25.02;;;14.80;;
34405;SDS011;20658;45.630;8.886;2023-02-28T08:46:11;29.17;;;16.20;;
34405;SDS011;20658;45.630;8.886;2023-02-28T08:48:47;35.28;;;21.80;;
34405;SDS011;20658;45.630;8.886;2023-02-28T08:51:24;31.80;;;18.27;;
34405;SDS011;20658;45.630;8.886;2023-02-28T08:53:59;29.75;;;15.85;;
34405;SDS011;20658;45.630;8.886;2023-02-28T08:56:33;25.92;;;15.52;;
34405;SDS011;20658;45.630;8.886;2023-02-28T08:59:08;30.77;;;16.67;;
34405;SDS011;20658;45.630;8.886;2023-02-28T09:01:42;26.35;;;15.60;;
34405;SDS011;20658;45.630;8.886;2023-02-28T09:04:17;27.38;;;16.13;;
34405;SDS011;20658;45.630;8.886;2023-02-28T09:06:50;26.80;;;16.75;;
34405;SDS011;20658;45.630;8.886;2023-02-28T09:09:23;28.52;;;17.15;;
34405;SDS011;20658;45.630;8.886;2023-02-28T09:11:57;24.98;;;17.38;;
34405;SDS011;20658;45.630;8.886;2023-02-28T09:14:31;34.63;;;20.83;;
34405;SDS011;20658;45.630;8.886;2023-02-28T09:17:04;27.20;;;17.63;;
34405;SDS011;20658;45.630;8.886;2023-02-28T09:19:39;27.60;;;16.77;;
34405;SDS011;20658;45.630;8.886;2023-02-28T09:22:12;26.02;;;16.55;;
34405;SDS011;20658;45.630;8.886;2023-02-28T09:24:41;25.67;;;15.90;;
34405;SDS011;20658;45.630;8.886;2023-02-28T09:27:15;27.35;;;15.65;;
34405;SDS011;20658;45.630;8.886;2023-02-28T09:29:49;27.67;;;16.83;;
34405;SDS011;20658;45.630;8.886;2023-02-28T09:32:25;31.35;;;16.92;;
34405;SDS011;20658;45.630;8.886;2023-02-28T09:35:00;28.48;;;16.95;;
34405;SDS011;20658;45.630;8.886;2023-02-28T09:37:33;28.92;;;18.38;;
34405;SDS011;20658;45.630;8.886;2023-02-28T09:40:10;26.60;;;16.33;;
34405;SDS011;20658;45.630;8.886;2023-02-28T09:42:46;30.08;;;17.25;;
34405;SDS011;20658;45.630;8.886;2023-02-28T09:45:22;26.45;;;17.35;;
34405;SDS011;20658;45.630;8.886;2023-02-28T09:48:01;30.00;;;17.85;;
34405;SDS011;20658;45.630;8.886;2023-02-28T09:50:43;27.88;;;18.25;;
34405;SDS011;20658;45.630;8.886;2023-02-28T09:53:21;32.20;;;19.52;;
34405;SDS011;20658;45.630;8.886;2023-02-28T09:56:01;28.33;;;17.80;;
34405;SDS011;20658;45.630;8.886;2023-02-28T09:58:40;25.80;;;17.42;;
34405;SDS011;20658;45.630;8.886;2023-02-28T10:01:21;28.20;;;17.75;;
34405;SDS011;20658;45.630;8.886;2023-02-28T10:03:58;30.63;;;18.38;;
34405;SDS011;20658;45.630;8.886;2023-02-28T10:06:39;27.13;;;16.48;;
34405;SDS011;20658;45.630;8.886;2023-02-28T10:09:19;25.70;;;16.77;;
34405;SDS011;20658;45.630;8.886;2023-02-28T10:11:59;25.75;;;17.00;;
34405;SDS011;20658;45.630;8.886;2023-02-28T10:14:36;26.45;;;16.70;;
34405;SDS011;20658;45.630;8.886;2023-02-28T10:17:16;27.95;;;17.15;;
34405;SDS011;20658;45.630;8.886;2023-02-28T10:19:56;27.88;;;16.85;;
34405;SDS011;20658;45.630;8.886;2023-02-28T10:22:42;24.75;;;16.08;;
34405;SDS011;20658;45.630;8.886;2023-02-28T10:25:25;23.23;;;15.10;;
34405;SDS011;20658;45.630;8.886;2023-02-28T10:28:05;24.27;;;15.30;;
34405;SDS011;20658;45.630;8.886;2023-02-28T10:33:22;25.38;;;15.10;;
34405;SDS011;20658;45.630;8.886;2023-02-28T10:35:57;23.58;;;14.70;;
34405;SDS011;20658;45.630;8.886;2023-02-28T10:38:33;26.30;;;16.27;;
34405;SDS011;20658;45.630;8.886;2023-02-28T10:41:04;24.75;;;15.82;;
34405;SDS011;20658;45.630;8.886;2023-02-28T10:43:40;31.48;;;15.38;;
34405;SDS011;20658;45.630;8.886;2023-02-28T10:46:16;23.92;;;15.90;;
34405;SDS011;20658;45.630;8.886;2023-02-28T10:49:01;24.83;;;15.00;;
34405;SDS011;20658;45.630;8.886;2023-02-28T10:51:38;25.08;;;15.48;;
34405;SDS011;20658;45.630;8.886;2023-02-28T10:54:16;23.85;;;15.52;;
34405;SDS011;20658;45.630;8.886;2023-02-28T10:57:06;26.77;;;15.45;;
34405;SDS011;20658;45.630;8.886;2023-02-28T10:59:50;24.00;;;15.82;;
34405;SDS011;20658;45.630;8.886;2023-02-28T11:02:30;24.27;;;15.10;;
34405;SDS011;20658;45.630;8.886;2023-02-28T11:08:05;25.60;;;15.15;;
34405;SDS011;20658;45.630;8.886;2023-02-28T11:10:53;30.17;;;15.13;;
34405;SDS011;20658;45.630;8.886;2023-02-28T11:13:31;24.33;;;14.63;;
34405;SDS011;20658;45.630;8.886;2023-02-28T11:16:07;23.88;;;14.68;;
34405;SDS011;20658;45.630;8.886;2023-02-28T11:18:44;22.38;;;13.95;;
34405;SDS011;20658;45.630;8.886;2023-02-28T11:21:22;23.83;;;15.15;;
34405;SDS011;20658;45.630;8.886;2023-02-28T11:24:01;24.83;;;15.60;;
34405;SDS011;20658;45.630;8.886;2023-02-28T11:26:41;24.30;;;14.48;;
34405;SDS011;20658;45.630;8.886;2023-02-28T11:29:18;21.65;;;14.30;;
34405;SDS011;20658;45.630;8.886;2023-02-28T11:32:04;24.63;;;14.80;;
34405;SDS011;20658;45.630;8.886;2023-02-28T11:34:59;24.42;;;14.85;;
34405;SDS011;20658;45.630;8.886;2023-02-28T11:37:30;23.30;;;14.35;;
34405;SDS011;20658;45.630;8.886;2023-02-28T11:40:05;23.80;;;14.95;;
34405;SDS011;20658;45.630;8.886;2023-02-28T11:42:50;21.90;;;13.65;;
34405;SDS011;20658;45.630;8.886;2023-02-28T11:45:43;23.42;;;14.50;;
34405;SDS011;20658;45.630;8.886;2023-02-28T11:48:30;22.17;;;13.93;;
34405;SDS011;20658;45.630;8.886;2023-02-28T11:51:18;20.80;;;13.35;;
34405;SDS011;20658;45.630;8.886;2023-02-28T11:54:02;21.77;;;14.43;;
34405;SDS011;20658;45.630;8.886;2023-02-28T11:57:21;23.02;;;13.93;;
34405;SDS011;20658;45.630;8.886;2023-02-28T12:00:11;24.10;;;14.68;;
34405;SDS011;20658;45.630;8.886;2023-02-28T12:03:04;23.58;;;15.38;;
34405;SDS011;20658;45.630;8.886;2023-02-28T12:05:52;22.45;;;14.25;;
34405;SDS011;20658;45.630;8.886;2023-02-28T12:08:49;23.67;;;14.82;;
34405;SDS011;20658;45.630;8.886;2023-02-28T12:11:38;22.30;;;15.00;;
34405;SDS011;20658;45.630;8.886;2023-02-28T12:14:40;21.73;;;14.43;;
34405;SDS011;20658;45.630;8.886;2023-02-28T12:17:34;24.60;;;14.73;;
34405;SDS011;20658;45.630;8.886;2023-02-28T12:20:23;25.35;;;13.52;;
34405;SDS011;20658;45.630;8.886;2023-02-28T12:23:10;23.40;;;15.05;;
34405;SDS011;20658;45.630;8.886;2023-02-28T12:26:06;23.02;;;14.60;;
34405;SDS011;20658;45.630;8.886;2023-02-28T12:28:48;45.90;;;30.58;;
34405;SDS011;20658;45.630;8.886;2023-02-28T12:31:26;28.02;;;19.30;;
34405;SDS011;20658;45.630;8.886;2023-02-28T12:34:09;23.15;;;13.30;;
34405;SDS011;20658;45.630;8.886;2023-02-28T12:39:23;22.60;;;13.88;;
34405;SDS011;20658;45.630;8.886;2023-02-28T12:42:03;22.77;;;14.48;;
34405;SDS011;20658;45.630;8.886;2023-02-28T12:44:44;26.37;;;15.67;;
34405;SDS011;20658;45.630;8.886;2023-02-28T12:47:21;23.92;;;14.98;;
34405;SDS011;20658;45.630;8.886;2023-02-28T12:49:58;22.08;;;13.68;;
34405;SDS011;20658;45.630;8.886;2023-02-28T12:52:36;25.65;;;15.15;;
34405;SDS011;20658;45.630;8.886;2023-02-28T12:55:17;25.95;;;14.93;;
34405;SDS011;20658;45.630;8.886;2023-02-28T13:00:38;25.50;;;15.02;;
34405;SDS011;20658;45.630;8.886;2023-02-28T13:03:46;25.05;;;15.20;;
34405;SDS011;20658;45.630;8.886;2023-02-28T13:06:43;25.63;;;14.95;;
34405;SDS011;20658;45.630;8.886;2023-02-28T13:09:30;26.40;;;15.75;;
34405;SDS011;20658;45.630;8.886;2023-02-28T13:12:11;26.73;;;17.88;;
34405;SDS011;20658;45.630;8.886;2023-02-28T13:14:46;24.88;;;15.18;;
34405;SDS011;20658;45.630;8.886;2023-02-28T13:17:20;23.33;;;14.65;;
34405;SDS011;20658;45.630;8.886;2023-02-28T13:19:57;21.80;;;14.82;;
34405;SDS011;20658;45.630;8.886;2023-02-28T13:22:39;21.05;;;14.50;;
34405;SDS011;20658;45.630;8.886;2023-02-28T13:44:20;26.08;;;16.55;;
34405;SDS011;20658;45.630;8.886;2023-02-28T13:53:27;24.08;;;15.77;;
34405;SDS011;20658;45.630;8.886;2023-02-28T13:56:21;22.95;;;15.15;;
34405;SDS011;20658;45.630;8.886;2023-02-28T13:59:06;23.23;;;15.30;;
34405;SDS011;20658;45.630;8.886;2023-02-28T14:01:53;24.92;;;15.25;;
34405;SDS011;20658;45.630;8.886;2023-02-28T14:05:02;21.45;;;13.63;;
34405;SDS011;20658;45.630;8.886;2023-02-28T14:07:40;27.55;;;17.60;;
34405;SDS011;20658;45.630;8.886;2023-02-28T14:10:22;24.17;;;16.38;;
34405;SDS011;20658;45.630;8.886;2023-02-28T14:13:00;23.90;;;15.52;;
34405;SDS011;20658;45.630;8.886;2023-02-28T14:15:49;26.27;;;16.23;;
34405;SDS011;20658;45.630;8.886;2023-02-28T14:18:32;22.58;;;15.32;;
34405;SDS011;20658;45.630;8.886;2023-02-28T14:21:11;24.85;;;16.25;;
34405;SDS011;20658;45.630;8.886;2023-02-28T14:24:01;25.55;;;16.15;;
34405;SDS011;20658;45.630;8.886;2023-02-28T14:27:17;27.30;;;16.52;;
34405;SDS011;20658;45.630;8.886;2023-02-28T14:30:01;24.75;;;15.93;;
34405;SDS011;20658;45.630;8.886;2023-02-28T14:33:10;32.00;;;17.52;;
34405;SDS011;20658;45.630;8.886;2023-02-28T14:36:03;86.28;;;23.15;;
34405;SDS011;20658;45.630;8.886;2023-02-28T14:38:45;29.70;;;15.73;;
34405;SDS011;20658;45.630;8.886;2023-02-28T14:41:31;24.55;;;16.25;;
34405;SDS011;20658;45.630;8.886;2023-02-28T14:44:19;23.50;;;16.60;;
34405;SDS011;20658;45.630;8.886;2023-02-28T14:46:55;22.92;;;15.68;;
34405;SDS011;20658;45.630;8.886;2023-02-28T14:49:31;26.65;;;20.02;;
34405;SDS011;20658;45.630;8.886;2023-02-28T14:52:12;25.55;;;16.58;;
34405;SDS011;20658;45.630;8.886;2023-02-28T14:54:45;24.60;;;15.60;;
34405;SDS011;20658;45.630;8.886;2023-02-28T14:57:25;24.52;;;15.95;;
34405;SDS011;20658;45.630;8.886;2023-02-28T15:00:03;26.88;;;17.13;;
34405;SDS011;20658;45.630;8.886;2023-02-28T15:05:19;23.33;;;15.45;;
34405;SDS011;20658;45.630;8.886;2023-02-28T15:08:02;26.60;;;17.45;;
34405;SDS011;20658;45.630;8.886;2023-02-28T15:10:50;23.30;;;16.30;;
34405;SDS011;20658;45.630;8.886;2023-02-28T15:13:30;24.92;;;16.58;;
34405;SDS011;20658;45.630;8.886;2023-02-28T15:16:11;24.23;;;17.05;;
34405;SDS011;20658;45.630;8.886;2023-02-28T15:18:48;25.10;;;16.45;;
34405;SDS011;20658;45.630;8.886;2023-02-28T15:21:24;25.73;;;15.75;;
34405;SDS011;20658;45.630;8.886;2023-02-28T15:24:01;25.45;;;17.45;;
34405;SDS011;20658;45.630;8.886;2023-02-28T15:26:39;26.42;;;16.92;;
34405;SDS011;20658;45.630;8.886;2023-02-28T15:29:11;26.48;;;16.20;;
34405;SDS011;20658;45.630;8.886;2023-02-28T15:31:50;24.60;;;16.77;;
34405;SDS011;20658;45.630;8.886;2023-02-28T15:34:33;26.30;;;16.30;;
34405;SDS011;20658;45.630;8.886;2023-02-28T15:37:29;23.60;;;16.15;;
34405;SDS011;20658;45.630;8.886;2023-02-28T15:40:13;26.88;;;16.73;;
34405;SDS011;20658;45.630;8.886;2023-02-28T15:43:00;24.92;;;16.98;;
34405;SDS011;20658;45.630;8.886;2023-02-28T15:45:39;28.05;;;16.02;;
34405;SDS011;20658;45.630;8.886;2023-02-28T15:48:20;27.38;;;18.20;;
34405;SDS011;20658;45.630;8.886;2023-02-28T15:50:56;29.38;;;19.08;;
34405;SDS011;20658;45.630;8.886;2023-02-28T15:53:36;26.92;;;17.23;;
34405;SDS011;20658;45.630;8.886;2023-02-28T15:56:18;25.63;;;17.40;;
34405;SDS011;20658;45.630;8.886;2023-02-28T15:58:57;25.05;;;17.27;;
34405;SDS011;20658;45.630;8.886;2023-02-28T16:01:34;25.60;;;16.52;;
34405;SDS011;20658;45.630;8.886;2023-02-28T16:04:14;29.40;;;16.80;;
34405;SDS011;20658;45.630;8.886;2023-02-28T16:07:00;28.83;;;17.52;;
34405;SDS011;20658;45.630;8.886;2023-02-28T16:09:31;25.95;;;17.42;;
34405;SDS011;20658;45.630;8.886;2023-02-28T16:12:05;25.67;;;17.50;;
34405;SDS011;20658;45.630;8.886;2023-02-28T16:14:44;29.33;;;16.77;;
34405;SDS011;20658;45.630;8.886;2023-02-28T16:17:20;26.20;;;16.67;;
34405;SDS011;20658;45.630;8.886;2023-02-28T16:19:56;25.42;;;16.42;;